Thunderstorms From: 25-05-2018 05:05 Until: 26-05-2018 05:00 warning for: Thunderstorms Level: Yellow info button

Although rather usual in this region, locally or potentially dangerous phenomena are expected. (such as local winds, summer thunderstorms, rising streams or high waves) Be aware and pay attention to the latest weather updates, especially if you carry out activities exposed to weather or close to a stream or shoreline. 


Meteo18 Weather Cam more information Meteo18 Weather Cam


warning for Thunderstorms more information blitzortung!


Rain radar more information rain snow radar


Visit our other weather sites:

Template documentation
and downloads

And another site



Weather Underground History page Text

Daily Summary for February 5, 2017 Units:  English    Metric   Both
« Previous Day
Next Day »
Daily Weekly Monthly Yearly Custom
  High: Low: Average:
Temperature: TemperatureC °F 4.7 °F 6.8 °F
Dew Point: DewpointC °F 3.0 °F 5.1 °F
Humidity: Humidity % 71 % 88 %
Wind Speed: WindSpeedKMH mph 0.0 mph 7.1 mph
Wind Gust: WindSpeedGustKMH mph - -
Wind:- - SW
Pressure: PressurehPa in 997.5 in -
Precipitation: 8.4 in    
Historical Graphs
 
 
Tabular Data for February 5, 2017
Time Temperature Dew Point Pressure Wind Wind Speed Wind Gust Humidity Rainfall Rate (Hourly)
TemperatureC °F DewpointC °F PressurehPa in Calm     Humidity % HourlyPrecipMM in
00:02 4.8 °F 3.0 °F 1004.6 in SSE 1.6 mph 4.8 mph 88 % 0.0 in
00:07 4.8 °F 3.0 °F 1004.6 in SSE 1.6 mph 4.8 mph 88 % 0.0 in
00:12 4.9 °F 3.1 °F 1004.6 in Calm   4.8 mph 88 % 0.0 in
00:17 4.9 °F 3.2 °F 1004.6 in Calm   3.2 mph 89 % 0.0 in
00:22 4.9 °F 3.2 °F 1004.6 in Calm   3.2 mph 89 % 0.0 in
00:27 4.9 °F 3.2 °F 1004.6 in Calm   1.6 mph 89 % 0.3 in
00:32 4.9 °F 3.2 °F 1004.6 in Calm   1.6 mph 89 % 0.3 in
00:37 5.0 °F 3.3 °F 1004.6 in Calm   1.6 mph 89 % 0.3 in
00:42 4.9 °F 3.4 °F 1004.6 in Calm   1.6 mph 90 % 0.3 in
00:47 4.8 °F 3.5 °F 1004.3 in Calm   1.6 mph 91 % 0.3 in
00:52 4.8 °F 3.5 °F 1004.3 in Calm   1.6 mph 91 % 0.5 in
00:57 4.8 °F 3.5 °F 1004.3 in South 1.6 mph 3.2 mph 91 % 0.5 in
01:02 4.8 °F 3.5 °F 1003.9 in Calm   3.2 mph 91 % 0.5 in
01:07 4.8 °F 3.5 °F 1003.9 in SSW 1.6 mph 3.2 mph 91 % 0.5 in
01:12 4.8 °F 3.6 °F 1003.9 in SSW 1.6 mph 1.6 mph 92 % 0.5 in
01:17 4.9 °F 3.7 °F 1003.9 in Calm   1.6 mph 92 % 0.5 in
01:22 4.9 °F 3.7 °F 1003.6 in Calm   1.6 mph 92 % 0.5 in
01:27 5.1 °F 3.9 °F 1003.6 in Calm   1.6 mph 92 % 0.5 in
01:32 5.1 °F 3.9 °F 1003.6 in Calm   1.6 mph 92 % 0.5 in
01:37 5.1 °F 3.9 °F 1003.6 in South 1.6 mph 1.6 mph 92 % 0.5 in
01:42 5.1 °F 3.9 °F 1003.3 in Calm   1.6 mph 92 % 0.5 in
01:47 5.2 °F 4.2 °F 1003.3 in Calm   1.6 mph 93 % 0.8 in
01:52 5.2 °F 4.2 °F 1002.9 in Calm   1.6 mph 93 % 0.8 in
01:57 5.2 °F 4.2 °F 1002.9 in Calm   1.6 mph 93 % 1.0 in
02:02 5.2 °F 4.2 °F 1002.9 in Calm   1.6 mph 93 % 1.3 in
02:07 5.2 °F 4.2 °F 1002.6 in Calm   1.6 mph 93 % 1.3 in
02:12 5.2 °F 4.3 °F 1002.6 in Calm   1.6 mph 94 % 1.0 in
02:17 5.2 °F 4.3 °F 1002.6 in Calm     94 % 1.3 in
02:22 5.2 °F 4.3 °F 1002.3 in Calm     94 % 1.5 in
02:27 5.1 °F 4.2 °F 1002.3 in SSE 1.6 mph 1.6 mph 94 % 1.5 in
02:32 5.1 °F 4.2 °F 1002.3 in NNE 1.6 mph 3.2 mph 94 % 1.5 in
02:37 4.9 °F 4.0 °F 1002.3 in NNW 1.6 mph 3.2 mph 94 % 1.5 in
02:42 4.7 °F 3.8 °F 1001.9 in Calm   3.2 mph 94 % 1.5 in
02:47 4.8 °F 4.1 °F 1001.9 in Calm   3.2 mph 95 % 1.3 in
02:52 5.0 °F 4.4 °F 1001.9 in Calm   1.6 mph 96 % 1.3 in
02:57 5.2 °F 4.6 °F 1001.6 in Calm   1.6 mph 96 % 1.3 in
03:02 5.2 °F 4.6 °F 1001.6 in ENE 3.2 mph 3.2 mph 96 % 1.0 in
03:07 5.1 °F 4.4 °F 1001.6 in Calm   3.2 mph 95 % 1.0 in
03:12 5.2 °F 4.6 °F 1001.6 in Calm   3.2 mph 96 % 0.8 in
03:17 5.2 °F 4.6 °F 1001.2 in Calm   3.2 mph 96 % 0.8 in
03:22 5.2 °F 4.6 °F 1001.2 in Calm   3.2 mph 96 % 0.8 in
03:27 5.3 °F 4.7 °F 1000.9 in East 3.2 mph 3.2 mph 96 % 0.5 in
03:32 5.3 °F 4.7 °F 1000.9 in East 3.2 mph 8.0 mph 96 % 0.5 in
03:37 5.3 °F 4.7 °F 1000.9 in ESE 1.6 mph 8.0 mph 96 % 0.5 in
03:42 5.3 °F 4.7 °F 1000.9 in Calm   8.0 mph 96 % 0.5 in
03:47 5.3 °F 4.7 °F 1000.6 in Calm   6.4 mph 96 % 0.5 in
03:52 5.3 °F 4.6 °F 1000.6 in Calm   4.8 mph 95 % 0.3 in
03:57 5.2 °F 4.5 °F 1000.6 in SE 1.6 mph 4.8 mph 95 % 0.5 in
04:02 5.2 °F 4.5 °F 1000.2 in SSE 1.6 mph 4.8 mph 95 % 0.5 in
04:07 5.2 °F 4.5 °F 1000.2 in ESE 3.2 mph 6.4 mph 95 % 0.8 in
04:12 5.2 °F 4.5 °F 999.9 in Calm   6.4 mph 95 % 1.0 in
04:17 5.2 °F 4.5 °F 1000.2 in Calm   6.4 mph 95 % 1.0 in
04:22 5.3 °F 4.7 °F 1000.2 in South 1.6 mph 6.4 mph 96 % 1.0 in
04:27 5.3 °F 4.7 °F 999.9 in Calm   4.8 mph 96 % 1.3 in
04:32 5.4 °F 4.8 °F 999.5 in ESE 4.8 mph 4.8 mph 96 % 1.5 in
04:37 5.4 °F 4.8 °F 999.5 in Calm   4.8 mph 96 % 1.8 in
04:42 5.4 °F 4.8 °F 999.5 in Calm   4.8 mph 96 % 1.8 in
04:47 5.4 °F 4.8 °F 999.5 in SE 4.8 mph 4.8 mph 96 % 2.0 in
04:52 5.4 °F 4.8 °F 999.5 in SE 4.8 mph 9.7 mph 96 % 2.3 in
04:57 5.4 °F 4.8 °F 999.2 in ESE 1.6 mph 11.3 mph 96 % 2.0 in
05:02 5.3 °F 4.7 °F 999.2 in ESE 6.4 mph 11.3 mph 96 % 1.5 in
05:07 5.3 °F 4.7 °F 999.2 in ESE 1.6 mph 11.3 mph 96 % 1.5 in
05:12 5.3 °F 4.7 °F 998.9 in ESE 1.6 mph 6.4 mph 96 % 1.5 in
05:17 5.3 °F 4.7 °F 998.9 in SE 1.6 mph 6.4 mph 96 % 1.5 in
05:22 5.4 °F 4.8 °F 998.5 in Calm   6.4 mph 96 % 1.5 in
05:32 5.4 °F 4.8 °F 998.5 in Calm   6.4 mph 96 % 1.3 in
05:37 5.6 °F 5.0 °F 998.5 in SE 6.4 mph 9.7 mph 96 % 1.3 in
05:42 5.6 °F 5.0 °F 998.5 in SE 3.2 mph 11.3 mph 96 % 1.0 in
05:47 5.7 °F 5.1 °F 998.2 in SSE 3.2 mph 11.3 mph 96 % 1.0 in
05:52 5.7 °F 5.1 °F 998.2 in South 1.6 mph 11.3 mph 96 % 1.0 in
05:57 5.8 °F 5.2 °F 998.2 in SSW 3.2 mph 9.7 mph 96 % 1.3 in
06:02 5.8 °F 5.2 °F 997.9 in ESE 8.0 mph 9.7 mph 96 % 1.3 in
06:07 5.8 °F 5.2 °F 997.9 in ESE 8.0 mph 12.9 mph 96 % 1.3 in
06:12 5.8 °F 5.2 °F 997.9 in SSE 1.6 mph 12.9 mph 96 % 1.0 in
06:17 5.8 °F 5.2 °F 997.9 in SSW 3.2 mph 12.9 mph 96 % 1.0 in
06:22 5.8 °F 5.2 °F 997.9 in South 1.6 mph 9.7 mph 96 % 1.0 in
06:27 5.8 °F 5.2 °F 997.9 in ESE 6.4 mph 9.7 mph 96 % 0.8 in
06:32 5.9 °F 5.3 °F 997.9 in SSE 4.8 mph 11.3 mph 96 % 0.8 in
06:37 6.1 °F 5.5 °F 997.9 in SSE 8.0 mph 14.5 mph 96 % 0.5 in
06:42 6.1 °F 5.5 °F 997.9 in South 6.4 mph 14.5 mph 96 % 0.5 in
06:47 6.2 °F 5.6 °F 997.5 in SSW 6.4 mph 14.5 mph 96 % 0.5 in
06:52 6.2 °F 5.6 °F 997.5 in SSW 3.2 mph 14.5 mph 96 % 0.3 in
06:57 6.3 °F 5.7 °F 997.5 in South 4.8 mph 14.5 mph 96 % 0.3 in
07:07 6.3 °F 5.6 °F 997.5 in SE 3.2 mph 12.9 mph 95 % 0.3 in
07:12 6.3 °F 5.6 °F 997.5 in SSE 4.8 mph 12.9 mph 95 % 0.0 in
07:17 6.4 °F 5.7 °F 997.5 in SSE 3.2 mph 9.7 mph 95 % 0.0 in
07:22 6.5 °F 5.9 °F 997.5 in South 3.2 mph 9.7 mph 96 % 0.0 in
07:27 6.7 °F 6.1 °F 997.5 in South 4.8 mph 9.7 mph 96 % 0.0 in
07:32 6.9 °F 6.2 °F 997.5 in South 9.7 mph 12.9 mph 95 % 0.0 in
07:37 7.3 °F 6.6 °F 997.5 in SW 12.9 mph 14.5 mph 95 % 0.0 in
07:42 7.5 °F 6.6 °F 997.5 in SSW 16.1 mph 17.7 mph 94 % 0.0 in
07:47 7.6 °F 6.7 °F 997.5 in SSW 6.4 mph 17.7 mph 94 % 0.0 in
07:52 7.7 °F 6.6 °F 997.5 in SSW 8.0 mph 17.7 mph 93 % 0.0 in
07:57 7.8 °F 6.7 °F 997.5 in SSW 12.9 mph 17.7 mph 93 % 0.0 in
08:02 7.9 °F 6.8 °F 997.9 in SSW 9.7 mph 17.7 mph 93 % 0.0 in
08:07 8.1 °F 6.9 °F 997.9 in SW 17.7 mph 24.1 mph 92 % 0.0 in
08:12 8.0 °F 6.9 °F 997.9 in SW 8.0 mph 24.1 mph 93 % 0.0 in
08:17 7.9 °F 6.8 °F 997.9 in SSW 8.0 mph 24.1 mph 93 % 0.0 in
08:22 7.8 °F 6.7 °F 997.9 in SW 12.9 mph 22.5 mph 93 % 0.0 in
08:27 7.8 °F 6.7 °F 997.9 in SSW 9.7 mph 17.7 mph 93 % 0.0 in
08:37 7.8 °F 6.7 °F 997.9 in SSW 8.0 mph 17.7 mph 93 % 0.0 in
08:42 7.9 °F 6.8 °F 997.9 in SSW 9.7 mph 19.3 mph 93 % 0.0 in
08:47 7.9 °F 6.7 °F 997.9 in SSW 14.5 mph 19.3 mph 92 % 0.0 in
08:52 8.1 °F 6.9 °F 998.2 in SSW 14.5 mph 19.3 mph 92 % 0.0 in
08:57 8.1 °F 6.9 °F 998.2 in SSW 17.7 mph 20.9 mph 92 % 0.0 in
09:02 8.2 °F 7.0 °F 998.5 in South 19.3 mph 29.0 mph 92 % 0.0 in
09:07 8.3 °F 6.9 °F 998.5 in SW 17.7 mph 29.0 mph 91 % 0.0 in
09:12 8.3 °F 6.9 °F 998.5 in SW 20.9 mph 29.0 mph 91 % 0.0 in
09:17 8.4 °F 7.2 °F 998.5 in SW 17.7 mph 32.2 mph 92 % 0.0 in
09:22 8.5 °F 7.1 °F 998.5 in WSW 12.9 mph 32.2 mph 91 % 0.0 in
09:27 8.6 °F 7.1 °F 998.5 in West 16.1 mph 32.2 mph 90 % 0.0 in
09:32 8.6 °F 7.1 °F 998.9 in WSW 17.7 mph 32.2 mph 90 % 0.0 in
09:37 8.6 °F 7.1 °F 998.9 in WSW 19.3 mph 30.6 mph 90 % 0.0 in
09:42 8.7 °F 7.0 °F 998.9 in SW 19.3 mph 38.6 mph 89 % 0.3 in
09:47 8.6 °F 6.9 °F 998.9 in WSW 16.1 mph 38.6 mph 89 % 0.3 in
09:52 8.6 °F 6.9 °F 998.9 in SW 11.3 mph 38.6 mph 89 % 0.3 in
09:57 8.6 °F 6.9 °F 998.9 in WSW 17.7 mph 32.2 mph 89 % 0.3 in
10:02 8.5 °F 6.8 °F 998.9 in SSW 12.9 mph 30.6 mph 89 % 0.3 in
10:07 8.4 °F 6.5 °F 998.9 in SW 12.9 mph 30.6 mph 88 % 0.3 in
10:12 8.4 °F 6.5 °F 999.2 in WSW 12.9 mph 29.0 mph 88 % 0.3 in
10:17 8.4 °F 6.5 °F 999.2 in West 11.3 mph 33.8 mph 88 % 0.3 in
10:22 8.3 °F 6.3 °F 999.2 in West 20.9 mph 33.8 mph 87 % 0.3 in
10:27 8.4 °F 6.4 °F 999.2 in WSW 6.4 mph 33.8 mph 87 % 0.3 in
10:32 8.4 °F 6.4 °F 998.9 in West 12.9 mph 25.7 mph 87 % 0.3 in
10:37 8.4 °F 6.5 °F 999.2 in SSW 11.3 mph 25.7 mph 88 % 0.3 in
10:42 8.4 °F 6.5 °F 999.5 in SW 12.9 mph 25.7 mph 88 % 0.0 in
10:47 8.4 °F 6.5 °F 999.5 in WSW 9.7 mph 27.4 mph 88 % 0.0 in
10:52 8.5 °F 6.6 °F 999.5 in SSW 1.6 mph 27.4 mph 88 % 0.0 in
10:57 8.5 °F 6.6 °F 999.5 in SW 6.4 mph 27.4 mph 88 % 0.0 in
11:02 8.6 °F 6.7 °F 999.5 in SW 16.1 mph 24.1 mph 88 % 0.0 in
11:07 8.6 °F 6.7 °F 999.9 in South 9.7 mph 24.1 mph 88 % 0.0 in
11:12 8.7 °F 6.7 °F 999.9 in WSW 14.5 mph 24.1 mph 87 % 0.0 in
11:17 8.7 °F 6.7 °F 999.9 in SW 12.9 mph 24.1 mph 87 % 0.0 in
11:22 8.7 °F 6.7 °F 999.9 in SW 11.3 mph 24.1 mph 87 % 0.0 in
11:27 8.7 °F 6.7 °F 999.9 in SW 9.7 mph 24.1 mph 87 % 0.0 in
11:32 8.8 °F 6.8 °F 1000.2 in SW 8.0 mph 20.9 mph 87 % 0.0 in
11:37 8.8 °F 6.8 °F 1000.2 in SSW 9.7 mph 20.9 mph 87 % 0.0 in
11:42 8.8 °F 6.8 °F 1000.2 in WSW 11.3 mph 20.9 mph 87 % 0.0 in
11:47 8.8 °F 6.6 °F 999.9 in SSW 14.5 mph 22.5 mph 86 % 0.0 in
11:52 8.9 °F 6.5 °F 999.9 in SW 11.3 mph 22.5 mph 85 % 0.0 in
11:57 8.9 °F 6.3 °F 999.9 in WSW 12.9 mph 24.1 mph 84 % 0.0 in
12:02 8.9 °F 6.3 °F 999.9 in SW 9.7 mph 25.7 mph 84 % 0.0 in
12:07 8.9 °F 6.2 °F 999.9 in SSW 17.7 mph 25.7 mph 83 % 0.0 in
12:12 8.9 °F 6.3 °F 999.9 in SW 16.1 mph 22.5 mph 84 % 0.0 in
12:17 8.9 °F 6.5 °F 999.9 in SW 12.9 mph 24.1 mph 85 % 0.0 in
12:22 8.9 °F 6.3 °F 999.9 in SSW 8.0 mph 29.0 mph 84 % 0.0 in
12:27 8.9 °F 6.3 °F 999.9 in SSW 12.9 mph 29.0 mph 84 % 0.0 in
12:32 8.9 °F 6.3 °F 999.9 in SW 8.0 mph 29.0 mph 84 % 0.0 in
12:37 8.9 °F 6.0 °F 999.9 in SW 17.7 mph 24.1 mph 82 % 0.0 in
12:42 8.9 °F 6.2 °F 999.9 in SW 19.3 mph 30.6 mph 83 % 0.0 in
12:47 8.9 °F 6.0 °F 999.9 in SW 19.3 mph 30.6 mph 82 % 0.0 in
12:52 8.9 °F 6.2 °F 999.9 in WSW 12.9 mph 29.0 mph 83 % 0.0 in
12:57 9.1 °F 6.4 °F 999.9 in SW 14.5 mph 29.0 mph 83 % 0.0 in
13:02 9.3 °F 6.2 °F 999.9 in West 14.5 mph 27.4 mph 81 % 0.0 in
13:07 9.4 °F 6.7 °F 999.9 in SW 12.9 mph 25.7 mph 83 % 0.0 in
13:12 9.3 °F 6.0 °F 999.9 in SSW 12.9 mph 25.7 mph 80 % 0.0 in
13:22 9.3 °F 5.7 °F 999.5 in West 16.1 mph 30.6 mph 78 % 0.0 in
13:27 9.2 °F 5.6 °F 999.9 in WSW 12.9 mph 30.6 mph 78 % 0.0 in
13:32 9.3 °F 5.7 °F 999.5 in WSW 12.9 mph 32.2 mph 78 % 0.0 in
13:37 9.3 °F 5.5 °F 999.5 in West 14.5 mph 32.2 mph 77 % 0.0 in
13:42 9.3 °F 5.5 °F 999.5 in SSW 11.3 mph 29.0 mph 77 % 0.0 in
13:47 9.5 °F 5.9 °F 999.5 in SW 6.4 mph 29.0 mph 78 % 0.0 in
13:52 9.7 °F 5.9 °F 999.5 in SW 12.9 mph 27.4 mph 77 % 0.0 in
13:57 9.8 °F 5.6 °F 999.5 in SSW 9.7 mph 27.4 mph 75 % 0.0 in
14:02 9.8 °F 5.8 °F 999.5 in SW 19.3 mph 29.0 mph 76 % 0.0 in
14:07 9.9 °F 5.9 °F 999.5 in West 14.5 mph 29.0 mph 76 % 0.0 in
14:12 10.1 °F 5.9 °F 999.5 in SSW 14.5 mph 27.4 mph 75 % 0.0 in
14:17 10.0 °F 5.2 °F 999.5 in SW 16.1 mph 25.7 mph 72 % 0.0 in
14:22 9.9 °F 5.1 °F 999.5 in SW 16.1 mph 30.6 mph 72 % 0.0 in
14:27 9.8 °F 5.0 °F 999.5 in WSW 17.7 mph 30.6 mph 72 % 0.0 in
14:32 9.8 °F 5.0 °F 999.5 in SW 16.1 mph 29.0 mph 72 % 0.0 in
14:37 9.6 °F 4.6 °F 999.5 in NW 11.3 mph 29.0 mph 71 % 0.0 in
14:42 9.6 °F 4.8 °F 999.9 in West 8.0 mph 29.0 mph 72 % 0.0 in
14:47 9.6 °F 5.2 °F 999.9 in WSW 11.3 mph 25.7 mph 74 % 0.0 in
14:52 9.6 °F 5.2 °F 999.9 in SW 11.3 mph 20.9 mph 74 % 0.0 in
14:57 9.6 °F 5.0 °F 999.9 in WSW 8.0 mph 25.7 mph 73 % 0.0 in
15:02 9.6 °F 5.2 °F 999.9 in WSW 14.5 mph 25.7 mph 74 % 0.0 in
15:07 9.5 °F 5.3 °F 999.9 in SW 6.4 mph 25.7 mph 75 % 0.0 in
15:12 9.5 °F 5.5 °F 999.9 in West 4.8 mph 19.3 mph 76 % 0.0 in
15:17 9.5 °F 5.3 °F 999.9 in SW 14.5 mph 17.7 mph 75 % 0.0 in
15:22 9.5 °F 4.9 °F 999.9 in SW 9.7 mph 17.7 mph 73 % 0.0 in
15:32 9.4 °F 5.0 °F 999.9 in SW 8.0 mph 20.9 mph 74 % 0.0 in
15:37 9.4 °F 5.0 °F 999.9 in SW 11.3 mph 19.3 mph 74 % 0.0 in
15:42 9.4 °F 5.2 °F 999.9 in West 11.3 mph 19.3 mph 75 % 0.0 in
15:47 9.4 °F 5.2 °F 1000.2 in SW 3.2 mph 16.1 mph 75 % 0.0 in
15:52 9.4 °F 5.0 °F 1000.2 in SW 8.0 mph 16.1 mph 74 % 0.0 in
15:57 9.4 °F 5.4 °F 1000.2 in WSW 9.7 mph 16.1 mph 76 % 0.0 in
16:02 9.3 °F 4.9 °F 1000.2 in SW 11.3 mph 17.7 mph 74 % 0.0 in
16:07 9.3 °F 5.3 °F 1000.6 in SSW 9.7 mph 20.9 mph 76 % 0.0 in
16:12 9.2 °F 5.2 °F 1000.6 in SSW 4.8 mph 20.9 mph 76 % 0.0 in
16:17 9.2 °F 5.4 °F 1000.6 in SW 8.0 mph 20.9 mph 77 % 0.0 in
16:22 9.2 °F 5.6 °F 1000.6 in SSW 8.0 mph 14.5 mph 78 % 0.0 in
16:32 9.2 °F 5.6 °F 1000.9 in SSW 9.7 mph 16.1 mph 78 % 0.0 in
16:42 9.0 °F 5.7 °F 1000.9 in SSW 4.8 mph 17.7 mph 80 % 0.0 in
16:47 9.0 °F 5.7 °F 1000.9 in SSW 8.0 mph 16.1 mph 80 % 0.0 in
16:52 8.9 °F 5.5 °F 1000.9 in SSW 3.2 mph 14.5 mph 79 % 0.0 in
16:57 8.9 °F 5.6 °F 1000.9 in South 4.8 mph 9.7 mph 80 % 0.0 in
17:02 8.9 °F 5.8 °F 1001.2 in SSW 6.4 mph 9.7 mph 81 % 0.0 in
17:07 8.8 °F 5.5 °F 1001.2 in SSW 6.4 mph 9.7 mph 80 % 0.0 in
17:12 8.7 °F 5.4 °F 1001.2 in SSW 14.5 mph 14.5 mph 80 % 0.0 in
17:17 8.4 °F 5.5 °F 1001.2 in South 9.7 mph 16.1 mph 82 % 0.0 in
17:22 8.2 °F 5.3 °F 1001.6 in SSW 6.4 mph 16.1 mph 82 % 0.0 in
17:32 7.8 °F 5.3 °F 1001.6 in SSE 4.8 mph 14.5 mph 84 % 0.0 in
17:37 7.7 °F 5.2 °F 1001.9 in SSW 6.4 mph 11.3 mph 84 % 0.0 in
17:42 7.6 °F 5.1 °F 1001.9 in SSW 6.4 mph 12.9 mph 84 % 0.0 in
17:47 7.4 °F 5.2 °F 1002.3 in SW 12.9 mph 16.1 mph 86 % 0.0 in
17:52 7.3 °F 4.8 °F 1002.3 in WSW 12.9 mph 16.1 mph 84 % 0.0 in
17:57 6.9 °F 4.7 °F 1002.3 in WSW 16.1 mph 20.9 mph 86 % 0.0 in
18:02 6.6 °F 4.8 °F 1002.6 in WSW 12.9 mph 20.9 mph 88 % 0.5 in
18:07 6.6 °F 4.6 °F 1002.6 in SW 6.4 mph 19.3 mph 87 % 0.8 in
18:12 6.5 °F 4.5 °F 1002.9 in WSW 4.8 mph 19.3 mph 87 % 1.5 in
18:17 6.4 °F 4.6 °F 1002.9 in Calm   16.1 mph 88 % 1.5 in
18:22 6.4 °F 4.6 °F 1002.9 in Calm   11.3 mph 88 % 1.5 in
18:27 6.3 °F 4.6 °F 1002.9 in Calm   8.0 mph 89 % 1.5 in
18:32 6.2 °F 4.7 °F 1002.9 in NNW 3.2 mph 3.2 mph 90 % 1.5 in
18:37 6.2 °F 4.7 °F 1002.9 in Calm   3.2 mph 90 % 1.5 in
18:42 6.0 °F 4.6 °F 1003.3 in NW 1.6 mph 3.2 mph 91 % 1.5 in
18:47 5.9 °F 4.5 °F 1003.3 in Calm   4.8 mph 91 % 1.5 in
18:52 5.8 °F 4.4 °F 1003.3 in Calm   4.8 mph 91 % 1.5 in
18:57 5.7 °F 4.3 °F 1003.6 in Calm   4.8 mph 91 % 1.5 in
19:02 5.6 °F 4.4 °F 1003.6 in Calm   1.6 mph 92 % 1.0 in
19:07 5.6 °F 4.4 °F 1003.6 in North 1.6 mph 1.6 mph 92 % 0.5 in
19:12 5.5 °F 4.3 °F 1003.6 in Calm   3.2 mph 92 % 0.3 in
19:17 5.4 °F 4.2 °F 1003.9 in NNE 1.6 mph 3.2 mph 92 % 0.3 in
19:22 5.3 °F 4.1 °F 1003.9 in NE 1.6 mph 3.2 mph 92 % 0.0 in
19:27 5.3 °F 4.4 °F 1003.9 in ENE 3.2 mph 4.8 mph 94 % 0.0 in
19:32 5.3 °F 4.3 °F 1003.9 in Calm   4.8 mph 93 % 0.0 in
19:37 5.2 °F 4.2 °F 1003.9 in Calm   4.8 mph 93 % 0.0 in
19:42 5.1 °F 4.2 °F 1004.3 in Calm   3.2 mph 94 % 0.0 in
19:47 5.1 °F 4.2 °F 1004.3 in NNW 1.6 mph 1.6 mph 94 % 0.0 in
19:52 5.2 °F 4.3 °F 1004.3 in Calm   3.2 mph 94 % 0.0 in
19:57 5.3 °F 4.4 °F 1004.6 in Calm   3.2 mph 94 % 0.0 in
20:02 5.3 °F 4.3 °F 1004.6 in Calm   3.2 mph 93 % 0.0 in
20:07 5.2 °F 4.2 °F 1004.6 in Calm   1.6 mph 93 % 0.0 in
20:12 5.2 °F 4.2 °F 1005.0 in Calm   1.6 mph 93 % 0.0 in
20:17 5.3 °F 4.3 °F 1005.0 in Calm   1.6 mph 93 % 0.0 in
20:22 5.4 °F 4.2 °F 1005.0 in Calm   1.6 mph 92 % 0.0 in
20:32 5.2 °F 4.0 °F 1005.3 in Calm     92 % 0.0 in
20:42 4.9 °F 3.9 °F 1005.3 in Calm     93 % 0.0 in
20:47 4.9 °F 3.9 °F 1005.6 in Calm     93 % 0.0 in
20:52 5.1 °F 4.1 °F 1005.6 in Calm     93 % 0.0 in
20:57 5.1 °F 4.1 °F 1005.6 in Calm     93 % 0.0 in
21:02 5.1 °F 3.9 °F 1005.6 in Calm     92 % 0.0 in
21:07 5.1 °F 3.9 °F 1006.0 in Calm     92 % 0.0 in
21:12 4.9 °F 3.9 °F 1006.0 in Calm     93 % 0.0 in
21:17 5.1 °F 4.1 °F 1006.3 in Calm     93 % 0.0 in
21:22 5.2 °F 4.0 °F 1006.3 in Calm   1.6 mph 92 % 0.0 in
21:27 5.2 °F 3.9 °F 1006.3 in Calm   1.6 mph 91 % 0.0 in
21:32 5.1 °F 3.8 °F 1006.7 in Calm   1.6 mph 91 % 0.0 in
21:37 5.0 °F 3.7 °F 1006.7 in Calm   1.6 mph 91 % 0.0 in
21:42 4.7 °F 3.5 °F 1006.7 in West 3.2 mph 3.2 mph 92 % 0.0 in
21:47 4.8 °F 3.6 °F 1007.0 in Calm   4.8 mph 92 % 0.0 in
21:52 5.1 °F 3.8 °F 1007.0 in WNW 6.4 mph 6.4 mph 91 % 0.0 in
21:57 5.3 °F 3.8 °F 1007.0 in NW 4.8 mph 9.7 mph 90 % 0.0 in
22:02 5.4 °F 3.7 °F 1007.3 in WNW 4.8 mph 9.7 mph 89 % 0.0 in
22:07 5.5 °F 3.8 °F 1007.3 in WNW 8.0 mph 9.7 mph 89 % 0.0 in
22:12 5.7 °F 3.9 °F 1007.3 in WNW 11.3 mph 16.1 mph 88 % 0.0 in
22:17 5.8 °F 4.0 °F 1007.7 in WNW 16.1 mph 17.7 mph 88 % 0.3 in
22:22 6.0 °F 4.2 °F 1007.7 in WNW 11.3 mph 22.5 mph 88 % 0.3 in
22:27 6.1 °F 4.3 °F 1007.7 in NW 9.7 mph 25.7 mph 88 % 0.3 in
22:32 6.0 °F 4.2 °F 1008.0 in NW 12.9 mph 25.7 mph 88 % 0.3 in
22:37 5.9 °F 4.1 °F 1008.0 in WNW 17.7 mph 33.8 mph 88 % 0.3 in
22:42 5.8 °F 4.1 °F 1008.4 in NW 25.7 mph 33.8 mph 89 % 0.3 in
22:47 5.7 °F 4.0 °F 1008.4 in WNW 11.3 mph 33.8 mph 89 % 0.3 in
22:52 5.6 °F 4.1 °F 1008.4 in WNW 9.7 mph 30.6 mph 90 % 0.3 in
22:57 5.6 °F 4.1 °F 1008.4 in WNW 8.0 mph 32.2 mph 90 % 0.3 in
23:02 5.6 °F 4.1 °F 1008.4 in WNW 19.3 mph 32.2 mph 90 % 0.3 in
23:07 5.7 °F 4.2 °F 1008.7 in NW 19.3 mph 32.2 mph 90 % 0.3 in
23:12 5.8 °F 4.3 °F 1008.7 in West 11.3 mph 37.0 mph 90 % 0.0 in
23:17 5.8 °F 4.3 °F 1009.0 in WNW 19.3 mph 37.0 mph 90 % 0.0 in
23:22 5.8 °F 4.3 °F 1009.0 in NW 20.9 mph 37.0 mph 90 % 0.0 in
23:27 5.8 °F 4.3 °F 1009.4 in WNW 14.5 mph 32.2 mph 90 % 0.0 in
23:32 5.8 °F 4.3 °F 1009.4 in WNW 11.3 mph 29.0 mph 90 % 0.0 in
23:37 5.8 °F 4.3 °F 1009.4 in WNW 16.1 mph 27.4 mph 90 % 0.0 in
23:42 5.9 °F 4.4 °F 1009.4 in NNW 17.7 mph 27.4 mph 90 % 0.0 in
23:47 5.9 °F 4.4 °F 1009.4 in WNW 20.9 mph 32.2 mph 90 % 0.0 in
23:52 5.9 °F 4.4 °F 1009.7 in WNW 20.9 mph 32.2 mph 90 % 0.0 in
23:57 5.8 °F 4.3 °F 1009.7 in WNW 11.3 mph 32.2 mph 90 % 0.0 in
Meteo18
Compliments of Weather Underground - 4 mb

Script developed by  Jim McMurry - jmcmurry@mwt.net Adapted for the template by  Wim van der Kuil - Leuven-Template.eu

You find our weather info also at:

European Weather Network

Weather Underground

Equipment we use:

Weather-station
Davis Vue

Weather-program
Meteobridge

Weather-server
Raspberry PI 2 B+

Provider
1 and 1

Davis Vue

Meteobridge

Raspberry PI 2 B+

1 and 1